Time;durP1;ratioP1;P1;durP2;ratioP2;P2;SDS_P1;SDS_P2;PMS_P1;PMS_P2;Temp;Humidity;BMP_temperature;BMP_pressure;BME280_temperature;BME280_humidity;BME280_pressure;Samples;Min_cycle;Max_cycle;Signal;HPM_P1;HPM_P2
2023/04/28 00:01:17;;;;;;;15.57;10.17;;;5.60;99.90;;;;;;5014631;28;20210;-74
2023/04/28 00:03:43;;;;;;;14.93;10.80;;;5.60;99.90;;;;;;5014409;28;20199;-73
2023/04/28 00:06:10;;;;;;;14.87;10.33;;;5.60;99.90;;;;;;5016008;28;20673;-71
2023/04/28 00:08:36;;;;;;;17.87;10.20;;;5.60;99.90;;;;;;5016690;28;20286;-72
2023/04/28 00:11:01;;;;;;;14.20;10.17;;;5.60;99.90;;;;;;5019855;28;21218;-73
2023/04/28 00:13:27;;;;;;;19.20;11.57;;;5.60;99.90;;;;;;5020262;28;20192;-72
2023/04/28 00:15:52;;;;;;;11.50;9.00;;;5.60;99.90;;;;;;5019678;28;20195;-73
2023/04/28 00:18:19;;;;;;;13.23;8.13;;;5.60;99.90;;;;;;5017922;28;20310;-72
2023/04/28 00:20:44;;;;;;;14.57;8.77;;;5.50;99.90;;;;;;5015686;28;20216;-72
2023/04/28 00:23:10;;;;;;;13.13;8.37;;;5.50;99.90;;;;;;5019997;28;20192;-72
2023/04/28 00:25:35;;;;;;;13.33;8.77;;;5.50;99.90;;;;;;5025131;28;20680;-73
2023/04/28 00:28:01;;;;;;;12.73;6.77;;;5.40;99.90;;;;;;5019589;28;20253;-73
2023/04/28 00:30:29;;;;;;;9.77;7.37;;;5.40;99.90;;;;;;5019042;28;20199;-74
2023/04/28 00:32:54;;;;;;;11.90;7.17;;;5.40;99.90;;;;;;5019473;28;20215;-73
2023/04/28 00:35:20;;;;;;;13.20;9.10;;;5.40;99.90;;;;;;5019474;28;20789;-74
2023/04/28 00:37:45;;;;;;;13.53;9.17;;;5.40;99.90;;;;;;5019579;28;20258;-72
2023/04/28 00:40:11;;;;;;;17.27;12.17;;;5.30;99.90;;;;;;5019689;28;20761;-73
2023/04/28 00:42:37;;;;;;;13.13;9.10;;;5.30;99.90;;;;;;5013280;28;20202;-73
2023/04/28 00:45:04;;;;;;;10.93;7.97;;;5.30;99.90;;;;;;5003617;28;20287;-73
2023/04/28 00:47:35;;;;;;;11.87;7.23;;;5.30;99.90;;;;;;5013722;28;20204;-72
2023/04/28 00:50:01;;;;;;;11.67;7.73;;;5.30;99.90;;;;;;5006776;28;20239;-71
2023/04/28 00:52:27;;;;;;;12.37;10.03;;;5.30;99.90;;;;;;5009743;28;20215;-71
2023/04/28 00:54:53;;;;;;;12.03;9.30;;;5.30;99.90;;;;;;4996257;28;20196;-72
2023/04/28 00:57:18;;;;;;;12.63;8.13;;;5.30;99.90;;;;;;5008766;28;20728;-72
2023/04/28 00:59:44;;;;;;;13.10;7.83;;;5.30;99.90;;;;;;5009007;28;20202;-72
2023/04/28 01:02:16;;;;;;;11.97;7.97;;;5.30;99.90;;;;;;4991301;28;20195;-74
2023/04/28 01:04:42;;;;;;;9.67;6.60;;;5.30;99.90;;;;;;5009077;28;20196;-74
2023/04/28 01:07:08;;;;;;;12.70;7.97;;;5.40;99.90;;;;;;5007076;28;20200;-74
2023/04/28 01:09:33;;;;;;;13.57;7.63;;;5.40;99.90;;;;;;4996339;28;20210;-73
2023/04/28 01:11:59;;;;;;;13.87;8.50;;;5.30;99.90;;;;;;5018805;28;20215;-72
2023/04/28 01:14:24;;;;;;;11.73;8.13;;;5.30;99.90;;;;;;5018957;28;20184;-73
2023/04/28 01:16:50;;;;;;;13.27;9.23;;;5.20;99.90;;;;;;5009347;28;20725;-74
2023/04/28 01:19:23;;;;;;;12.47;8.87;;;5.10;99.90;;;;;;5017802;28;20211;-74
2023/04/28 01:21:51;;;;;;;12.87;8.27;;;5.00;99.90;;;;;;5014199;28;20407;-72
2023/04/28 01:24:17;;;;;;;12.87;9.50;;;4.90;99.90;;;;;;5018920;28;20284;-73
2023/04/28 01:26:43;;;;;;;12.73;8.87;;;4.90;99.90;;;;;;5018999;28;20290;-73
2023/04/28 01:29:09;;;;;;;11.80;7.47;;;4.90;99.90;;;;;;5022219;28;20210;-70
2023/04/28 01:31:34;;;;;;;10.90;8.23;;;4.90;99.90;;;;;;5012380;28;20207;-72
2023/04/28 01:34:00;;;;;;;11.50;7.80;;;5.00;99.90;;;;;;5017113;28;20212;-72
2023/04/28 01:36:27;;;;;;;8.10;6.63;;;5.00;99.90;;;;;;5007655;28;20196;-75
2023/04/28 01:38:53;;;;;;;11.87;6.77;;;5.00;99.90;;;;;;5010431;28;20779;-73
2023/04/28 01:41:18;;;;;;;8.20;6.23;;;4.90;99.90;;;;;;5007016;28;20196;-74
2023/04/28 01:43:44;;;;;;;11.20;7.03;;;4.90;99.90;;;;;;5008112;28;20199;-71
2023/04/28 01:46:09;;;;;;;9.87;6.40;;;4.80;99.90;;;;;;5009466;28;20200;-75
2023/04/28 01:48:35;;;;;;;8.83;7.20;;;4.80;99.90;;;;;;5005875;28;20250;-73
2023/04/28 01:51:01;;;;;;;11.93;7.77;;;4.90;99.90;;;;;;5013058;28;20242;-75
2023/04/28 01:53:26;;;;;;;10.37;5.93;;;4.90;99.90;;;;;;5007237;28;20192;-71
2023/04/28 01:55:52;;;;;;;8.07;6.90;;;5.00;99.90;;;;;;5008059;28;20204;-71
2023/04/28 01:58:18;;;;;;;11.43;6.60;;;5.00;99.90;;;;;;5011992;28;20262;-72
2023/04/28 02:00:43;;;;;;;9.90;5.67;;;5.10;99.90;;;;;;5010326;28;20686;-71
2023/04/28 02:03:09;;;;;;;8.83;5.77;;;5.10;99.90;;;;;;5007866;28;20317;-74
2023/04/28 02:05:35;;;;;;;8.23;5.63;;;5.10;99.90;;;;;;5007356;28;20705;-71
2023/04/28 02:08:01;;;;;;;8.23;5.73;;;5.20;99.90;;;;;;5015963;28;20570;-71
2023/04/28 02:10:27;;;;;;;9.73;5.37;;;5.20;99.90;;;;;;5010346;28;20498;-72
2023/04/28 02:12:52;;;;;;;5.07;4.47;;;5.20;99.90;;;;;;5004451;28;20341;-72
2023/04/28 02:15:18;;;;;;;6.40;4.30;;;5.20;99.90;;;;;;5006888;28;20702;-72
2023/04/28 02:17:43;;;;;;;6.47;4.33;;;5.30;99.90;;;;;;5010846;28;20697;-70
2023/04/28 02:20:09;;;;;;;6.60;4.63;;;5.30;99.90;;;;;;5012195;28;20223;-70
2023/04/28 02:22:35;;;;;;;6.43;4.17;;;5.40;99.90;;;;;;5008295;28;20294;-70
2023/04/28 02:25:00;;;;;;;6.20;4.27;;;5.30;99.90;;;;;;5017473;28;20665;-72
2023/04/28 02:27:26;;;;;;;5.07;4.20;;;5.40;99.90;;;;;;5017506;28;20309;-71
2023/04/28 02:29:52;;;;;;;5.13;3.33;;;5.40;99.90;;;;;;5015431;28;20199;-71
2023/04/28 02:32:17;;;;;;;3.97;3.37;;;5.50;99.90;;;;;;5006650;28;20234;-72
2023/04/28 02:34:43;;;;;;;4.77;3.73;;;5.50;99.90;;;;;;5006923;28;20203;-71
2023/04/28 02:37:09;;;;;;;4.13;3.13;;;5.50;99.90;;;;;;5010203;28;20203;-72
2023/04/28 02:39:34;;;;;;;4.10;3.70;;;5.50;99.90;;;;;;5004580;28;20259;-72
2023/04/28 02:42:00;;;;;;;4.10;3.57;;;5.60;99.90;;;;;;5015741;28;20968;-73
2023/04/28 02:44:25;;;;;;;4.57;3.60;;;5.60;99.90;;;;;;5005947;28;20666;-74
2023/04/28 02:46:51;;;;;;;4.47;4.07;;;5.60;99.90;;;;;;5007666;28;20218;-73
2023/04/28 02:49:16;;;;;;;6.20;4.20;;;5.60;99.90;;;;;;5007394;28;20208;-73
2023/04/28 02:51:42;;;;;;;4.17;3.50;;;5.70;99.90;;;;;;5007368;28;20234;-74
2023/04/28 02:54:07;;;;;;;6.10;4.20;;;5.70;99.90;;;;;;5007753;28;20559;-73
2023/04/28 02:56:34;;;;;;;8.23;3.70;;;5.70;99.90;;;;;;5005423;28;20207;-73
2023/04/28 02:59:00;;;;;;;6.83;4.27;;;5.80;99.90;;;;;;5007507;28;20955;-73
2023/04/28 03:01:28;;;;;;;5.33;4.10;;;5.90;99.90;;;;;;5012662;28;20233;-73
2023/04/28 03:03:54;;;;;;;6.10;3.93;;;5.90;99.90;;;;;;5012892;28;20195;-73
2023/04/28 03:06:19;;;;;;;5.17;4.27;;;6.00;99.90;;;;;;5013551;28;20636;-72
2023/04/28 03:08:45;;;;;;;4.67;3.77;;;6.00;99.90;;;;;;5006799;28;20210;-74
2023/04/28 03:11:10;;;;;;;9.73;4.07;;;6.10;99.90;;;;;;5010980;28;20215;-75
2023/04/28 03:13:36;;;;;;;8.03;4.87;;;6.10;99.90;;;;;;5003733;28;20215;-73
2023/04/28 03:16:02;;;;;;;5.00;3.97;;;6.20;99.90;;;;;;5007114;28;20665;-73
2023/04/28 03:18:27;;;;;;;5.83;3.40;;;6.20;99.90;;;;;;5007682;28;20223;-73
2023/04/28 03:20:53;;;;;;;6.97;4.20;;;6.20;99.90;;;;;;5004630;28;20227;-72
2023/04/28 03:23:18;;;;;;;6.33;4.40;;;6.30;99.90;;;;;;5006293;28;20223;-73
2023/04/28 03:25:44;;;;;;;4.17;3.57;;;6.30;99.90;;;;;;5002036;28;20558;-72
2023/04/28 03:28:10;;;;;;;9.13;4.20;;;6.30;99.90;;;;;;5007265;28;20291;-73
2023/04/28 03:30:36;;;;;;;5.77;4.33;;;6.20;99.90;;;;;;4989235;28;20721;-73
2023/04/28 03:33:02;;;;;;;4.23;3.80;;;6.20;99.90;;;;;;5007602;28;20208;-75
2023/04/28 03:35:27;;;;;;;4.87;4.10;;;6.20;99.90;;;;;;5011601;28;20223;-73
2023/04/28 03:37:53;;;;;;;7.27;3.83;;;6.20;99.90;;;;;;5008892;28;20259;-72
2023/04/28 03:40:18;;;;;;;7.03;4.10;;;6.20;99.90;;;;;;5009304;28;20213;-74
2023/04/28 03:42:44;;;;;;;4.23;3.83;;;6.30;99.90;;;;;;5008423;28;20810;-73
2023/04/28 03:45:09;;;;;;;12.43;4.50;;;6.30;99.90;;;;;;5013606;28;20206;-81
2023/04/28 03:47:35;;;;;;;5.10;3.63;;;6.30;99.90;;;;;;5012590;28;20287;-78
2023/04/28 03:50:01;;;;;;;7.40;4.90;;;6.30;99.90;;;;;;5014282;28;20405;-79
2023/04/28 03:52:26;;;;;;;6.37;4.70;;;6.30;99.90;;;;;;5012835;28;20219;-76
2023/04/28 03:54:52;;;;;;;8.30;4.53;;;6.40;99.90;;;;;;5015502;28;20196;-78
2023/04/28 03:57:17;;;;;;;4.73;3.60;;;6.40;99.90;;;;;;5016337;28;20649;-80
2023/04/28 03:59:43;;;;;;;12.00;4.60;;;6.40;99.90;;;;;;5009179;28;20291;-79
2023/04/28 04:02:08;;;;;;;8.03;4.00;;;6.40;99.90;;;;;;5013571;28;20210;-79
2023/04/28 04:04:34;;;;;;;6.27;4.13;;;6.40;99.90;;;;;;5011924;28;20220;-79
2023/04/28 04:07:00;;;;;;;4.13;3.20;;;6.40;99.90;;;;;;5013896;28;20202;-76
2023/04/28 04:09:25;;;;;;;8.30;4.33;;;6.40;99.90;;;;;;5015635;28;20203;-77
2023/04/28 04:11:51;;;;;;;5.17;3.47;;;6.40;99.90;;;;;;5013947;28;20273;-79
2023/04/28 04:14:17;;;;;;;7.53;4.33;;;6.50;99.90;;;;;;5012773;28;20564;-78
2023/04/28 04:16:42;;;;;;;4.27;3.30;;;6.50;99.90;;;;;;5013148;28;20199;-79
2023/04/28 04:19:08;;;;;;;5.60;4.10;;;6.50;99.90;;;;;;5017509;28;20301;-79
2023/04/28 04:21:33;;;;;;;5.80;4.00;;;6.60;99.90;;;;;;5012864;28;20215;-77
2023/04/28 04:23:59;;;;;;;5.00;3.70;;;6.60;99.90;;;;;;5015043;28;20200;-78
2023/04/28 04:26:24;;;;;;;3.80;3.50;;;6.60;99.90;;;;;;5010866;28;20196;-78
2023/04/28 04:28:50;;;;;;;5.27;4.10;;;6.60;99.90;;;;;;5015557;28;20690;-79
2023/04/28 04:31:17;;;;;;;9.03;4.57;;;6.70;99.90;;;;;;5014060;28;20764;-79
2023/04/28 04:33:42;;;;;;;7.57;4.00;;;6.70;99.90;;;;;;5015602;28;20974;-78
2023/04/28 04:36:08;;;;;;;5.83;4.30;;;6.70;99.90;;;;;;5013652;28;20191;-78
2023/04/28 04:38:33;;;;;;;5.00;3.80;;;6.80;99.90;;;;;;5013423;28;20201;-78
2023/04/28 04:40:59;;;;;;;5.90;4.23;;;6.80;99.90;;;;;;5010964;28;20204;-80
2023/04/28 04:43:24;;;;;;;6.83;4.20;;;6.80;99.90;;;;;;5014277;28;20208;-78
2023/04/28 04:45:50;;;;;;;6.27;3.90;;;6.90;99.90;;;;;;5011437;28;20334;-79
2023/04/28 04:48:15;;;;;;;6.73;4.70;;;6.90;99.90;;;;;;5013666;28;20199;-79
2023/04/28 04:50:42;;;;;;;6.30;3.87;;;6.90;99.90;;;;;;5016574;28;20290;-78
2023/04/28 04:53:08;;;;;;;5.67;3.80;;;6.90;99.90;;;;;;5016549;28;20708;-78
2023/04/28 04:55:33;;;;;;;4.40;4.00;;;6.90;99.90;;;;;;5009183;28;20286;-77
2023/04/28 04:57:59;;;;;;;4.67;3.47;;;7.00;99.90;;;;;;5006678;28;20200;-78
2023/04/28 05:00:24;;;;;;;6.93;3.70;;;7.00;99.90;;;;;;5011728;28;20672;-77
2023/04/28 05:02:50;;;;;;;10.23;4.07;;;7.10;99.90;;;;;;5008753;28;20203;-78
2023/04/28 05:05:15;;;;;;;6.53;4.83;;;7.10;99.90;;;;;;5010095;28;20294;-78
2023/04/28 05:07:42;;;;;;;4.83;4.33;;;7.20;99.90;;;;;;5008640;28;20290;-77
2023/04/28 05:10:10;;;;;;;4.73;3.83;;;7.20;99.90;;;;;;4990767;28;20232;-77
2023/04/28 05:12:36;;;;;;;8.00;4.37;;;7.20;99.90;;;;;;4999851;28;20216;-76
2023/04/28 05:15:01;;;;;;;5.73;4.13;;;7.30;99.90;;;;;;5007924;28;20255;-76
2023/04/28 05:17:27;;;;;;;5.33;4.13;;;7.30;99.90;;;;;;5012215;28;20275;-77
2023/04/28 05:19:52;;;;;;;8.67;5.00;;;7.40;99.90;;;;;;5010100;28;20227;-76
2023/04/28 05:22:18;;;;;;;3.77;3.43;;;7.40;99.90;;;;;;5009394;28;20696;-78
2023/04/28 05:24:43;;;;;;;10.23;3.97;;;7.40;99.90;;;;;;4992174;28;20206;-77
2023/04/28 05:27:09;;;;;;;5.37;3.80;;;7.50;99.90;;;;;;5009664;28;20208;-78
2023/04/28 05:29:34;;;;;;;9.10;4.37;;;7.60;99.90;;;;;;5009010;28;20952;-78
2023/04/28 05:32:00;;;;;;;11.70;4.10;;;7.70;99.80;;;;;;5008028;28;20215;-78
2023/04/28 05:34:26;;;;;;;6.37;5.60;;;7.80;99.60;;;;;;5010930;28;20200;-78
2023/04/28 05:36:51;;;;;;;5.97;4.30;;;7.90;99.50;;;;;;5011628;28;20576;-76
2023/04/28 05:39:17;;;;;;;7.07;3.70;;;8.00;99.10;;;;;;5007887;28;20195;-76
2023/04/28 05:41:42;;;;;;;8.37;4.30;;;8.10;98.80;;;;;;5010015;28;20215;-77
2023/04/28 05:44:08;;;;;;;7.77;4.53;;;8.20;98.70;;;;;;5011626;28;20230;-76
2023/04/28 05:46:33;;;;;;;10.50;4.83;;;8.30;98.50;;;;;;5009596;28;20199;-76
2023/04/28 05:48:59;;;;;;;5.93;3.70;;;8.40;98.00;;;;;;5014750;28;20231;-76
2023/04/28 05:51:26;;;;;;;5.93;3.90;;;8.40;97.80;;;;;;5008848;28;20215;-77
2023/04/28 05:53:51;;;;;;;10.30;4.80;;;8.50;97.90;;;;;;5006097;28;20536;-77
2023/04/28 05:56:17;;;;;;;4.23;3.77;;;8.60;97.50;;;;;;5013815;28;20206;-77
2023/04/28 05:58:46;;;;;;;5.77;3.40;;;8.70;97.30;;;;;;5008649;28;20214;-77
2023/04/28 06:01:12;;;;;;;5.63;3.70;;;8.80;97.20;;;;;;5009948;28;20203;-76
2023/04/28 06:03:40;;;;;;;9.27;4.77;;;8.90;97.30;;;;;;5017901;28;20207;-77
2023/04/28 06:06:06;;;;;;;5.97;3.87;;;9.00;96.60;;;;;;5016948;28;20291;-76
2023/04/28 06:08:32;;;;;;;4.63;3.80;;;9.10;96.70;;;;;;5018193;28;20308;-77
2023/04/28 06:10:57;;;;;;;8.33;4.40;;;9.30;96.70;;;;;;5016239;28;20800;-78
2023/04/28 06:13:23;;;;;;;6.93;3.93;;;9.40;95.80;;;;;;4990739;28;20292;-78
2023/04/28 06:15:48;;;;;;;3.93;3.63;;;9.50;95.50;;;;;;5018607;28;20220;-76
2023/04/28 06:18:15;;;;;;;4.77;3.73;;;9.50;95.50;;;;;;5018608;28;20198;-75
2023/04/28 06:20:40;;;;;;;5.00;4.53;;;9.60;95.50;;;;;;5011846;28;20315;-76
2023/04/28 06:23:07;;;;;;;4.20;3.77;;;9.80;95.10;;;;;;5017672;28;20284;-76
2023/04/28 06:25:34;;;;;;;4.90;3.50;;;9.90;94.50;;;;;;5017504;28;20196;-76
2023/04/28 06:27:59;;;;;;;4.97;3.33;;;10.10;94.10;;;;;;5017483;28;20206;-77
2023/04/28 06:30:25;;;;;;;4.40;3.20;;;10.30;93.60;;;;;;5017728;28;20301;-76
2023/04/28 06:32:50;;;;;;;5.70;3.70;;;10.40;93.00;;;;;;5017841;28;20824;-75
2023/04/28 06:35:16;;;;;;;6.23;3.80;;;10.50;92.70;;;;;;5018360;28;20193;-76
2023/04/28 06:37:42;;;;;;;7.10;4.10;;;10.50;92.40;;;;;;5001650;28;20758;-76
2023/04/28 06:40:09;;;;;;;6.30;4.37;;;10.60;92.60;;;;;;5017502;28;20201;-76
2023/04/28 06:42:34;;;;;;;6.63;4.10;;;10.60;92.10;;;;;;5017366;28;20206;-76
2023/04/28 06:45:00;;;;;;;5.23;4.27;;;10.50;91.50;;;;;;5017332;28;20201;-76
2023/04/28 06:47:26;;;;;;;7.57;4.30;;;10.50;91.40;;;;;;5013599;28;20193;-77
2023/04/28 06:49:51;;;;;;;8.53;4.13;;;10.50;91.20;;;;;;4997324;28;20635;-75
2023/04/28 06:52:17;;;;;;;4.17;3.47;;;10.50;91.40;;;;;;5016970;28;20228;-76
2023/04/28 06:54:42;;;;;;;9.27;3.83;;;10.50;90.60;;;;;;5016376;28;20625;-78
2023/04/28 06:57:08;;;;;;;8.73;4.07;;;10.50;90.20;;;;;;5005278;28;20210;-76
2023/04/28 06:59:33;;;;;;;6.07;3.53;;;10.50;90.20;;;;;;5007918;28;20702;-78
2023/04/28 07:01:59;;;;;;;5.47;3.90;;;10.40;90.10;;;;;;5008079;28;20567;-78
2023/04/28 07:04:25;;;;;;;8.13;4.67;;;10.40;90.60;;;;;;5010886;28;20204;-77
2023/04/28 07:06:51;;;;;;;8.23;4.50;;;10.50;90.40;;;;;;5007115;28;20299;-78
2023/04/28 07:09:16;;;;;;;3.77;3.40;;;10.60;90.50;;;;;;5007458;28;20204;-77
2023/04/28 07:11:43;;;;;;;5.63;4.07;;;10.80;90.20;;;;;;5006714;28;20247;-78
2023/04/28 07:14:08;;;;;;;5.03;3.57;;;11.00;89.70;;;;;;5007209;28;20197;-78
2023/04/28 07:16:35;;;;;;;4.80;3.93;;;11.10;89.50;;;;;;4988267;28;20189;-78
2023/04/28 07:19:00;;;;;;;7.83;4.07;;;11.10;88.30;;;;;;5011433;28;20236;-78
2023/04/28 07:21:27;;;;;;;4.77;3.60;;;11.30;87.70;;;;;;5007406;28;20289;-77
2023/04/28 07:23:55;;;;;;;8.23;4.03;;;11.30;86.20;;;;;;5005524;28;20740;-78
2023/04/28 07:26:21;;;;;;;7.80;3.77;;;11.40;84.50;;;;;;5007798;28;20201;-78
2023/04/28 07:28:47;;;;;;;4.23;3.70;;;11.50;83.00;;;;;;5002888;28;20208;-75
2023/04/28 07:31:12;;;;;;;5.40;3.50;;;11.60;83.80;;;;;;5006927;28;21032;-76
2023/04/28 07:33:38;;;;;;;8.23;3.33;;;11.70;83.00;;;;;;5006833;28;20607;-76
2023/04/28 07:36:06;;;;;;;5.40;3.33;;;11.80;83.60;;;;;;5009436;28;20210;-76
2023/04/28 07:38:34;;;;;;;8.20;4.33;;;12.00;81.70;;;;;;5004287;28;20279;-75
2023/04/28 07:40:59;;;;;;;6.40;3.47;;;12.00;80.70;;;;;;5005834;28;20207;-76
2023/04/28 07:43:25;;;;;;;5.47;3.60;;;12.00;81.20;;;;;;5007595;28;20258;-76
2023/04/28 07:45:51;;;;;;;6.70;3.80;;;12.00;81.00;;;;;;5010272;28;20198;-75
2023/04/28 07:48:17;;;;;;;5.40;4.03;;;12.10;80.90;;;;;;5005151;28;20533;-77
2023/04/28 07:50:42;;;;;;;5.10;3.60;;;12.20;79.70;;;;;;4990094;28;20264;-77
2023/04/28 07:53:08;;;;;;;6.50;3.53;;;12.10;79.40;;;;;;5008122;28;20305;-76
2023/04/28 07:55:33;;;;;;;4.57;2.90;;;12.10;79.50;;;;;;5007979;28;20212;-77
2023/04/28 07:57:59;;;;;;;9.70;3.17;;;12.30;80.10;;;;;;4990244;28;20224;-79
2023/04/28 08:00:25;;;;;;;7.43;3.03;;;12.40;78.40;;;;;;5007524;28;20199;-76
2023/04/28 08:02:50;;;;;;;3.40;3.10;;;12.40;79.50;;;;;;5008892;28;20253;-79
2023/04/28 08:05:16;;;;;;;5.77;3.17;;;12.50;78.60;;;;;;5011615;28;20683;-76
2023/04/28 08:07:42;;;;;;;4.33;3.50;;;12.60;78.90;;;;;;5009693;28;20242;-79
2023/04/28 08:10:09;;;;;;;5.37;3.90;;;12.80;78.20;;;;;;5008689;28;20280;-78
2023/04/28 08:12:35;;;;;;;5.20;4.40;;;12.90;77.60;;;;;;5007901;28;20228;-74
2023/04/28 08:15:01;;;;;;;5.60;3.93;;;13.10;77.40;;;;;;5012081;28;20273;-75
2023/04/28 08:17:26;;;;;;;5.50;4.07;;;13.20;76.30;;;;;;4990348;28;20971;-62
2023/04/28 08:19:52;;;;;;;7.33;3.43;;;13.20;76.30;;;;;;5006358;28;20582;-63
2023/04/28 08:22:17;;;;;;;9.40;3.83;;;13.20;76.00;;;;;;5005252;28;20201;-62
2023/04/28 08:24:43;;;;;;;5.00;3.57;;;13.20;74.80;;;;;;5005061;28;20264;-62
2023/04/28 08:27:08;;;;;;;4.37;2.63;;;13.20;74.90;;;;;;5005711;28;20219;-62
2023/04/28 08:29:34;;;;;;;10.10;3.97;;;13.30;75.00;;;;;;5006643;28;20254;-60
2023/04/28 08:32:03;;;;;;;6.33;4.93;;;13.50;75.30;;;;;;5009634;28;20299;-62
2023/04/28 08:34:29;;;;;;;4.30;3.70;;;13.50;73.20;;;;;;5010616;28;20216;-61
2023/04/28 08:36:54;;;;;;;5.00;4.20;;;13.60;74.60;;;;;;5010887;28;20522;-63
2023/04/28 08:39:22;;;;;;;5.13;4.07;;;13.60;73.30;;;;;;5010116;28;20717;-62
2023/04/28 08:41:48;;;;;;;6.57;4.00;;;13.50;74.30;;;;;;5010150;28;20278;-62
2023/04/28 08:44:13;;;;;;;5.37;3.93;;;13.60;74.60;;;;;;5010102;28;20737;-63
2023/04/28 08:46:43;;;;;;;4.77;3.33;;;13.60;73.70;;;;;;5007957;28;20826;-62
2023/04/28 08:49:21;;;;;;;4.43;3.43;;;13.60;73.50;;;;;;5009415;28;20712;-65
2023/04/28 08:51:57;;;;;;;7.03;3.53;;;13.70;72.80;;;;;;4995861;28;20219;-63
2023/04/28 08:54:27;;;;;;;6.63;4.17;;;13.70;73.60;;;;;;5006456;28;20283;-62
2023/04/28 08:56:53;;;;;;;7.00;4.47;;;13.80;72.70;;;;;;5009875;28;20277;-64
2023/04/28 08:59:20;;;;;;;6.33;4.60;;;13.70;72.00;;;;;;5010652;28;20206;-62
2023/04/28 09:01:48;;;;;;;5.37;3.70;;;13.70;71.90;;;;;;5007618;28;20207;-63
2023/04/28 09:04:16;;;;;;;6.17;4.30;;;13.80;72.40;;;;;;5009315;28;20688;-63
2023/04/28 09:06:42;;;;;;;7.17;3.63;;;14.00;72.00;;;;;;5004755;28;20255;-62
2023/04/28 09:09:30;;;;;;;6.47;3.53;;;14.10;71.70;;;;;;5006610;28;20204;-63
2023/04/28 09:11:58;;;;;;;5.77;3.87;;;14.00;70.30;;;;;;5008220;28;20222;-65
2023/04/28 09:14:24;;;;;;;6.50;3.93;;;14.10;71.70;;;;;;5009434;28;20290;-65
2023/04/28 09:16:50;;;;;;;6.73;4.70;;;14.30;70.10;;;;;;5014910;28;20354;-64
2023/04/28 09:19:16;;;;;;;5.73;3.53;;;14.40;69.30;;;;;;5016664;28;20203;-66
2023/04/28 09:21:50;;;;;;;5.30;3.20;;;14.60;70.20;;;;;;5007630;28;20620;-66
2023/04/28 09:24:35;;;;;;;7.90;3.67;;;14.70;68.20;;;;;;5007307;28;20237;-64
2023/04/28 09:27:03;;;;;;;6.23;3.83;;;14.60;67.80;;;;;;5009973;28;20211;-66
2023/04/28 09:29:29;;;;;;;5.87;3.80;;;14.80;69.00;;;;;;4997411;28;20227;-63
2023/04/28 09:32:11;;;;;;;7.03;3.73;;;15.00;68.30;;;;;;5016723;28;20297;-65
2023/04/28 09:34:46;;;;;;;6.47;4.33;;;15.20;67.00;;;;;;5004688;28;20204;-63
2023/04/28 09:37:22;;;;;;;5.93;4.70;;;15.40;66.60;;;;;;5014127;28;20199;-63
2023/04/28 09:39:52;;;;;;;5.40;3.87;;;15.30;65.40;;;;;;5017014;28;20242;-63
2023/04/28 09:42:37;;;;;;;8.47;4.30;;;15.30;66.40;;;;;;5013811;28;20203;-62
2023/04/28 09:45:07;;;;;;;8.80;4.50;;;15.30;65.30;;;;;;5017153;28;20202;-62
2023/04/28 09:47:35;;;;;;;5.40;4.37;;;15.40;64.30;;;;;;5016345;28;20203;-62
2023/04/28 09:50:03;;;;;;;7.40;3.90;;;15.30;64.80;;;;;;5016568;28;20952;-65
2023/04/28 09:52:29;;;;;;;7.73;4.40;;;15.40;65.50;;;;;;5014000;28;20299;-62
2023/04/28 09:54:56;;;;;;;5.83;4.80;;;15.60;64.90;;;;;;5014062;28;20274;-62
2023/04/28 09:57:22;;;;;;;4.30;3.90;;;15.50;63.80;;;;;;5016852;28;20665;-63
2023/04/28 09:59:50;;;;;;;7.60;3.97;;;15.40;64.00;;;;;;5017934;28;20209;-64
2023/04/28 10:02:17;;;;;;;14.30;4.47;;;15.50;65.90;;;;;;5013086;28;20959;-63
2023/04/28 10:04:47;;;;;;;10.70;4.37;;;15.80;66.30;;;;;;5015396;28;20208;-64
2023/04/28 10:07:15;;;;;;;11.57;4.83;;;15.90;63.80;;;;;;5016018;28;20290;-63
2023/04/28 10:09:48;;;;;;;11.17;4.67;;;15.80;63.10;;;;;;5017525;28;20211;-63
2023/04/28 10:12:14;;;;;;;6.93;4.47;;;15.80;63.70;;;;;;5013209;28;20235;-64
2023/04/28 10:14:41;;;;;;;6.40;4.23;;;16.10;64.70;;;;;;5015161;28;20751;-62
2023/04/28 10:17:07;;;;;;;9.27;4.67;;;16.40;64.20;;;;;;5007114;28;20206;-62
2023/04/28 10:19:33;;;;;;;7.67;4.90;;;16.50;64.50;;;;;;5007353;28;20215;-64
2023/04/28 10:22:23;;;;;;;5.87;4.37;;;16.40;62.70;;;;;;5007061;28;20208;-65
2023/04/28 10:25:11;;;;;;;10.10;4.43;;;16.50;63.00;;;;;;5011847;28;20227;-65
2023/04/28 10:27:45;;;;;;;4.63;4.20;;;16.60;62.70;;;;;;5012971;28;20233;-66
2023/04/28 10:30:16;;;;;;;6.60;4.50;;;16.80;62.70;;;;;;5011823;28;20211;-62
2023/04/28 10:32:42;;;;;;;5.20;4.47;;;17.00;61.70;;;;;;5012185;28;20231;-62
2023/04/28 10:35:26;;;;;;;5.53;4.37;;;16.90;60.40;;;;;;5015674;28;20700;-62
2023/04/28 10:38:20;;;;;;;7.83;5.13;;;16.60;60.60;;;;;;5013473;28;20534;-62
2023/04/28 10:40:48;;;;;;;6.23;4.20;;;16.50;60.10;;;;;;5013631;28;20752;-64
2023/04/28 10:43:34;;;;;;;6.97;4.37;;;16.70;61.20;;;;;;5013630;28;20241;-62
2023/04/28 10:46:07;;;;;;;6.17;3.93;;;16.90;60.60;;;;;;5009963;28;20269;-63
2023/04/28 10:48:32;;;;;;;5.93;4.40;;;17.20;60.40;;;;;;5007486;28;20200;-62
2023/04/28 10:51:04;;;;;;;7.53;4.77;;;17.40;60.60;;;;;;5007201;28;20212;-62
2023/04/28 10:53:45;;;;;;;4.53;4.10;;;17.50;59.00;;;;;;5001556;28;20197;-63
2023/04/28 10:56:20;;;;;;;7.33;3.87;;;17.70;59.40;;;;;;5012417;28;20312;-62
2023/04/28 10:58:47;;;;;;;4.63;4.20;;;17.80;58.20;;;;;;5006316;28;20201;-63
2023/04/28 11:01:25;;;;;;;7.43;4.13;;;17.90;58.70;;;;;;5007048;28;20210;-82
2023/04/28 11:03:59;;;;;;;4.77;3.97;;;18.00;57.30;;;;;;4998137;28;20609;-61
2023/04/28 11:06:34;;;;;;;6.73;4.53;;;18.20;58.30;;;;;;5001975;28;20207;-64
2023/04/28 11:09:21;;;;;;;8.70;4.70;;;18.40;58.50;;;;;;5007690;28;20258;-63
2023/04/28 11:11:59;;;;;;;10.03;4.13;;;18.70;56.70;;;;;;4997606;28;20208;-64
2023/04/28 11:14:24;;;;;;;7.97;4.40;;;18.70;56.30;;;;;;5005050;28;20196;-64
2023/04/28 11:16:58;;;;;;;8.37;5.00;;;18.70;55.90;;;;;;5009445;28;20195;-62
2023/04/28 11:19:25;;;;;;;7.93;4.70;;;18.70;55.30;;;;;;5003192;28;20212;-62
2023/04/28 11:21:53;;;;;;;6.33;4.03;;;18.90;58.20;;;;;;4988813;28;20208;-62
2023/04/28 11:24:19;;;;;;;8.87;4.77;;;19.10;54.50;;;;;;5007662;28;20261;-63
2023/04/28 11:26:44;;;;;;;5.00;4.13;;;19.20;54.30;;;;;;5008406;28;20222;-63
2023/04/28 11:29:11;;;;;;;9.57;4.13;;;19.10;53.90;;;;;;5013076;28;20198;-62
2023/04/28 11:31:37;;;;;;;7.73;5.10;;;18.90;55.40;;;;;;4997137;28;20588;-62
2023/04/28 11:34:10;;;;;;;7.47;4.63;;;18.70;54.60;;;;;;5009552;28;20207;-63
2023/04/28 11:36:38;;;;;;;7.70;5.33;;;18.70;54.50;;;;;;5011688;28;20240;-62
2023/04/28 11:39:09;;;;;;;8.87;4.73;;;18.70;54.40;;;;;;5005618;28;20709;-63
2023/04/28 11:41:39;;;;;;;6.53;4.97;;;18.80;55.30;;;;;;5009080;28;20206;-63
2023/04/28 11:44:12;;;;;;;9.57;5.10;;;18.60;54.40;;;;;;5004353;28;20218;-63
2023/04/28 11:46:49;;;;;;;5.70;4.23;;;18.50;54.50;;;;;;5007338;28;20209;-63
2023/04/28 11:49:15;;;;;;;6.60;4.33;;;18.50;53.60;;;;;;5006076;28;20273;-63
2023/04/28 11:51:42;;;;;;;6.90;5.20;;;18.40;55.20;;;;;;5007155;28;20251;-63
2023/04/28 11:54:10;;;;;;;4.93;4.43;;;18.50;55.40;;;;;;5006118;28;20219;-63
2023/04/28 11:56:37;;;;;;;6.70;5.07;;;18.70;54.10;;;;;;5005404;28;20198;-70
2023/04/28 11:59:12;;;;;;;8.33;5.47;;;19.00;54.30;;;;;;5005928;28;20194;-72
2023/04/28 12:01:49;;;;;;;6.43;4.47;;;19.40;54.10;;;;;;5007323;28;20223;-67
2023/04/28 12:04:35;;;;;;;10.23;5.37;;;19.70;53.20;;;;;;5009397;28;20204;-65
2023/04/28 12:07:02;;;;;;;5.23;4.73;;;20.00;52.90;;;;;;5011483;28;20678;-64
2023/04/28 12:09:28;;;;;;;9.30;5.70;;;20.30;51.90;;;;;;5006444;28;20557;-64
2023/04/28 12:11:59;;;;;;;8.07;4.73;;;20.40;52.20;;;;;;5009681;28;20243;-67
2023/04/28 12:14:25;;;;;;;8.33;5.70;;;20.30;52.50;;;;;;5013016;28;20216;-66
2023/04/28 12:16:51;;;;;;;8.30;5.97;;;20.20;51.60;;;;;;5011196;28;20363;-62
2023/04/28 12:19:17;;;;;;;11.63;5.93;;;20.10;51.90;;;;;;5006480;28;20291;-74
2023/04/28 12:21:43;;;;;;;8.10;5.27;;;19.90;52.90;;;;;;5003713;28;20308;-76
2023/04/28 12:24:20;;;;;;;8.67;4.40;;;20.00;52.60;;;;;;5011402;28;20226;-76
2023/04/28 12:26:47;;;;;;;6.00;5.00;;;20.20;52.30;;;;;;5010702;28;20220;-75
2023/04/28 12:29:35;;;;;;;5.77;4.90;;;20.10;52.30;;;;;;5007746;28;20604;-75
2023/04/28 12:32:01;;;;;;;5.03;4.63;;;19.90;52.70;;;;;;5007413;28;20578;-76
2023/04/28 12:34:28;;;;;;;7.70;4.80;;;20.00;52.30;;;;;;5013516;28;20275;-75
2023/04/28 12:36:53;;;;;;;7.23;5.30;;;19.70;52.20;;;;;;5005072;28;20209;-77
2023/04/28 12:39:21;;;;;;;5.83;4.43;;;19.20;52.70;;;;;;5009533;28;20205;-77
2023/04/28 12:41:47;;;;;;;6.47;4.80;;;19.00;53.60;;;;;;5011089;28;20205;-77
2023/04/28 12:44:14;;;;;;;6.80;5.00;;;19.20;54.50;;;;;;5007186;28;20208;-77
2023/04/28 12:46:40;;;;;;;5.23;4.73;;;19.60;54.10;;;;;;5009760;28;20217;-77
2023/04/28 12:49:06;;;;;;;5.50;5.00;;;20.00;53.40;;;;;;5009628;28;20210;-77
2023/04/28 12:51:33;;;;;;;10.50;6.07;;;20.20;53.60;;;;;;5008060;28;20261;-77